sensor_id;sensor_type;location;lat;lon;timestamp;pressure;altitude;pressure_sealevel;temperature;humidity
49055;BME280;35405;52.344;14.530;2023-02-16T06:40:51;101449.16;;;-0.94;100.00
49055;BME280;35405;52.344;14.530;2023-02-16T06:43:17;101453.69;;;-0.95;100.00
49055;BME280;35405;52.344;14.530;2023-02-16T06:45:42;101451.66;;;-0.93;100.00
49055;BME280;35405;52.344;14.530;2023-02-16T06:48:07;101446.31;;;-0.93;100.00
49055;BME280;35405;52.344;14.530;2023-02-16T06:50:32;101454.94;;;-0.90;100.00
49055;BME280;35405;52.344;14.530;2023-02-16T06:52:57;101456.38;;;-0.88;100.00
49055;BME280;35405;52.344;14.530;2023-02-16T06:55:23;101461.53;;;-0.86;100.00
49055;BME280;35405;52.344;14.530;2023-02-16T06:57:48;101467.50;;;-0.84;100.00
49055;BME280;35405;52.344;14.530;2023-02-16T07:00:13;101469.97;;;-0.83;100.00
49055;BME280;35405;52.344;14.530;2023-02-16T07:02:39;101474.09;;;-0.80;100.00
49055;BME280;35405;52.344;14.530;2023-02-16T07:05:04;101487.88;;;-0.77;100.00
49055;BME280;35405;52.344;14.530;2023-02-16T07:07:29;101489.34;;;-0.74;100.00
49055;BME280;35405;52.344;14.530;2023-02-16T07:09:55;101495.94;;;-0.70;100.00
49055;BME280;35405;52.344;14.530;2023-02-16T07:12:20;101491.88;;;-0.66;100.00
49055;BME280;35405;52.344;14.530;2023-02-16T07:14:46;101499.47;;;-0.63;100.00
49055;BME280;35405;52.344;14.530;2023-02-16T07:17:11;101487.38;;;-0.59;100.00
49055;BME280;35405;52.344;14.530;2023-02-16T07:19:37;101489.44;;;-0.54;100.00
49055;BME280;35405;52.344;14.530;2023-02-16T07:22:02;101489.09;;;-0.44;100.00
49055;BME280;35405;52.344;14.530;2023-02-16T07:24:29;101498.75;;;-0.43;100.00
49055;BME280;35405;52.344;14.530;2023-02-16T07:26:54;101497.31;;;-0.39;100.00
49055;BME280;35405;52.344;14.530;2023-02-16T07:29:19;101494.47;;;-0.31;100.00
49055;BME280;35405;52.344;14.530;2023-02-16T07:31:45;101486.53;;;-0.18;100.00
49055;BME280;35405;52.344;14.530;2023-02-16T07:34:10;101492.31;;;-0.08;100.00
49055;BME280;35405;52.344;14.530;2023-02-16T07:36:35;101485.56;;;0.03;100.00
49055;BME280;35405;52.344;14.530;2023-02-16T07:39:00;101487.63;;;0.08;100.00
49055;BME280;35405;52.344;14.530;2023-02-16T07:41:25;101489.91;;;0.17;100.00
49055;BME280;35405;52.344;14.530;2023-02-16T07:43:51;101496.28;;;0.30;100.00
49055;BME280;35405;52.344;14.530;2023-02-16T07:46:16;101493.84;;;0.41;100.00
49055;BME280;35405;52.344;14.530;2023-02-16T07:48:41;101486.66;;;0.55;100.00
49055;BME280;35405;52.344;14.530;2023-02-16T07:51:06;101485.22;;;0.73;100.00
49055;BME280;35405;52.344;14.530;2023-02-16T07:53:31;101496.97;;;0.85;100.00
49055;BME280;35405;52.344;14.530;2023-02-16T07:55:57;101492.81;;;0.96;100.00
49055;BME280;35405;52.344;14.530;2023-02-16T07:58:22;101492.81;;;1.02;100.00
49055;BME280;35405;52.344;14.530;2023-02-16T08:00:59;101491.38;;;1.06;100.00
49055;BME280;35405;52.344;14.530;2023-02-16T08:03:29;101497.34;;;1.15;100.00
49055;BME280;35405;52.344;14.530;2023-02-16T08:05:54;101501.84;;;1.21;100.00
49055;BME280;35405;52.344;14.530;2023-02-16T08:08:19;101498.13;;;1.29;100.00
49055;BME280;35405;52.344;14.530;2023-02-16T08:10:44;101497.91;;;1.37;100.00
49055;BME280;35405;52.344;14.530;2023-02-16T08:13:09;101499.31;;;1.46;100.00
49055;BME280;35405;52.344;14.530;2023-02-16T08:15:35;101493.28;;;1.64;100.00
49055;BME280;35405;52.344;14.530;2023-02-16T08:18:00;101488.47;;;1.79;100.00
49055;BME280;35405;52.344;14.530;2023-02-16T08:20:25;101485.94;;;1.91;100.00
49055;BME280;35405;52.344;14.530;2023-02-16T08:22:52;101484.44;;;2.02;100.00
49055;BME280;35405;52.344;14.530;2023-02-16T08:25:17;101486.84;;;2.10;100.00
49055;BME280;35405;52.344;14.530;2023-02-16T08:27:43;101485.84;;;2.11;100.00
49055;BME280;35405;52.344;14.530;2023-02-16T08:30:08;101489.53;;;2.10;100.00
49055;BME280;35405;52.344;14.530;2023-02-16T08:32:37;101496.16;;;2.08;100.00
49055;BME280;35405;52.344;14.530;2023-02-16T08:35:02;101498.00;;;2.07;100.00
49055;BME280;35405;52.344;14.530;2023-02-16T08:37:27;101504.00;;;2.09;100.00
49055;BME280;35405;52.344;14.530;2023-02-16T08:39:52;101493.66;;;2.13;100.00
49055;BME280;35405;52.344;14.530;2023-02-16T08:42:17;101498.59;;;2.16;100.00
49055;BME280;35405;52.344;14.530;2023-02-16T08:44:43;101500.03;;;2.18;100.00
49055;BME280;35405;52.344;14.530;2023-02-16T08:47:08;101492.78;;;2.19;100.00
49055;BME280;35405;52.344;14.530;2023-02-16T08:49:34;101495.28;;;2.20;100.00
49055;BME280;35405;52.344;14.530;2023-02-16T08:52:00;101495.88;;;2.22;100.00
49055;BME280;35405;52.344;14.530;2023-02-16T08:54:26;101498.28;;;2.31;100.00
49055;BME280;35405;52.344;14.530;2023-02-16T08:56:54;101503.34;;;2.45;100.00
49055;BME280;35405;52.344;14.530;2023-02-16T08:59:20;101497.88;;;2.59;100.00
49055;BME280;35405;52.344;14.530;2023-02-16T09:01:46;101499.94;;;2.63;100.00
49055;BME280;35405;52.344;14.530;2023-02-16T09:04:13;101498.41;;;2.74;100.00
49055;BME280;35405;52.344;14.530;2023-02-16T09:06:39;101494.59;;;2.82;100.00
49055;BME280;35405;52.344;14.530;2023-02-16T09:09:05;101503.44;;;2.89;100.00
49055;BME280;35405;52.344;14.530;2023-02-16T09:11:30;101493.91;;;2.93;100.00
49055;BME280;35405;52.344;14.530;2023-02-16T09:13:55;101490.94;;;3.01;100.00
49055;BME280;35405;52.344;14.530;2023-02-16T09:16:21;101485.13;;;3.04;100.00
49055;BME280;35405;52.344;14.530;2023-02-16T09:18:47;101480.56;;;3.05;100.00
49055;BME280;35405;52.344;14.530;2023-02-16T09:21:14;101486.31;;;3.08;100.00
49055;BME280;35405;52.344;14.530;2023-02-16T09:23:41;101488.56;;;3.11;100.00
49055;BME280;35405;52.344;14.530;2023-02-16T09:26:06;101483.09;;;3.18;100.00
49055;BME280;35405;52.344;14.530;2023-02-16T09:28:33;101495.00;;;3.29;100.00
49055;BME280;35405;52.344;14.530;2023-02-16T09:30:59;101493.38;;;3.46;100.00
49055;BME280;35405;52.344;14.530;2023-02-16T09:33:24;101491.47;;;3.65;100.00
49055;BME280;35405;52.344;14.530;2023-02-16T09:35:50;101487.59;;;3.79;100.00
49055;BME280;35405;52.344;14.530;2023-02-16T09:38:15;101497.19;;;3.87;100.00
49055;BME280;35405;52.344;14.530;2023-02-16T09:40:42;101506.25;;;3.93;100.00
49055;BME280;35405;52.344;14.530;2023-02-16T09:43:22;101501.13;;;4.03;100.00
49055;BME280;35405;52.344;14.530;2023-02-16T09:45:53;101501.63;;;4.11;100.00
49055;BME280;35405;52.344;14.530;2023-02-16T09:50:54;101494.41;;;4.24;100.00
49055;BME280;35405;52.344;14.530;2023-02-16T09:56:22;101501.66;;;4.53;100.00
49055;BME280;35405;52.344;14.530;2023-02-16T09:59:26;101500.25;;;4.63;100.00
49055;BME280;35405;52.344;14.530;2023-02-16T10:07:08;101496.19;;;4.84;100.00
49055;BME280;35405;52.344;14.530;2023-02-16T10:09:35;101491.28;;;4.92;100.00
49055;BME280;35405;52.344;14.530;2023-02-16T10:14:38;101490.94;;;5.12;100.00
49055;BME280;35405;52.344;14.530;2023-02-16T10:22:15;101490.69;;;5.25;100.00
49055;BME280;35405;52.344;14.530;2023-02-16T10:24:58;101496.41;;;5.41;100.00
49055;BME280;35405;52.344;14.530;2023-02-16T10:27:25;101494.28;;;5.43;100.00
49055;BME280;35405;52.344;14.530;2023-02-16T10:29:51;101499.69;;;5.55;100.00
49055;BME280;35405;52.344;14.530;2023-02-16T10:32:26;101499.06;;;5.64;100.00
49055;BME280;35405;52.344;14.530;2023-02-16T10:35:02;101498.22;;;5.76;100.00
49055;BME280;35405;52.344;14.530;2023-02-16T10:47:40;101495.97;;;5.96;100.00
49055;BME280;35405;52.344;14.530;2023-02-16T10:50:15;101494.50;;;6.05;100.00
49055;BME280;35405;52.344;14.530;2023-02-16T10:52:43;101487.19;;;6.17;100.00
49055;BME280;35405;52.344;14.530;2023-02-16T10:55:10;101477.72;;;6.32;100.00
49055;BME280;35405;52.344;14.530;2023-02-16T10:57:35;101484.59;;;6.39;100.00
49055;BME280;35405;52.344;14.530;2023-02-16T11:00:03;101482.31;;;6.48;100.00
49055;BME280;35405;52.344;14.530;2023-02-16T11:02:38;101480.25;;;6.55;100.00
49055;BME280;35405;52.344;14.530;2023-02-16T11:07:53;101476.09;;;6.81;100.00
49055;BME280;35405;52.344;14.530;2023-02-16T11:10:21;101478.19;;;6.96;100.00
49055;BME280;35405;52.344;14.530;2023-02-16T11:12:52;101478.59;;;7.05;100.00
49055;BME280;35405;52.344;14.530;2023-02-16T11:20:34;101465.88;;;7.22;100.00
49055;BME280;35405;52.344;14.530;2023-02-16T11:28:24;101465.00;;;7.39;100.00
49055;BME280;35405;52.344;14.530;2023-02-16T11:30:50;101463.38;;;7.38;100.00
49055;BME280;35405;52.344;14.530;2023-02-16T11:33:24;101458.25;;;7.41;100.00
49055;BME280;35405;52.344;14.530;2023-02-16T11:35:50;101460.19;;;7.46;100.00
49055;BME280;35405;52.344;14.530;2023-02-16T11:38:29;101454.44;;;7.59;100.00
49055;BME280;35405;52.344;14.530;2023-02-16T11:40:56;101461.66;;;7.75;100.00
49055;BME280;35405;52.344;14.530;2023-02-16T11:43:25;101465.03;;;7.88;100.00
49055;BME280;35405;52.344;14.530;2023-02-16T11:45:58;101464.34;;;7.97;100.00
49055;BME280;35405;52.344;14.530;2023-02-16T11:48:25;101469.13;;;8.17;100.00
49055;BME280;35405;52.344;14.530;2023-02-16T11:53:25;101464.34;;;8.52;100.00
49055;BME280;35405;52.344;14.530;2023-02-16T11:55:50;101460.84;;;8.56;100.00
49055;BME280;35405;52.344;14.530;2023-02-16T11:58:32;101450.91;;;8.67;100.00
49055;BME280;35405;52.344;14.530;2023-02-16T12:03:51;101449.19;;;8.56;100.00
49055;BME280;35405;52.344;14.530;2023-02-16T12:06:25;101448.25;;;8.40;100.00
49055;BME280;35405;52.344;14.530;2023-02-16T12:09:01;101447.88;;;8.36;100.00
49055;BME280;35405;52.344;14.530;2023-02-16T12:11:42;101443.47;;;8.25;100.00
49055;BME280;35405;52.344;14.530;2023-02-16T12:17:01;101449.94;;;8.19;100.00
49055;BME280;35405;52.344;14.530;2023-02-16T12:19:34;101449.13;;;8.18;100.00
49055;BME280;35405;52.344;14.530;2023-02-16T12:27:24;101436.66;;;8.50;100.00
49055;BME280;35405;52.344;14.530;2023-02-16T12:32:38;101419.19;;;8.67;100.00
49055;BME280;35405;52.344;14.530;2023-02-16T12:45:29;101404.47;;;8.58;100.00
49055;BME280;35405;52.344;14.530;2023-02-16T12:48:18;101397.66;;;8.56;100.00
49055;BME280;35405;52.344;14.530;2023-02-16T12:50:44;101397.41;;;8.57;100.00
49055;BME280;35405;52.344;14.530;2023-02-16T12:55:47;101381.66;;;8.54;100.00
49055;BME280;35405;52.344;14.530;2023-02-16T13:03:26;101381.16;;;8.62;100.00
49055;BME280;35405;52.344;14.530;2023-02-16T13:06:14;101377.41;;;8.68;100.00
49055;BME280;35405;52.344;14.530;2023-02-16T13:08:43;101373.41;;;8.81;100.00
49055;BME280;35405;52.344;14.530;2023-02-16T13:13:55;101381.34;;;8.93;100.00
49055;BME280;35405;52.344;14.530;2023-02-16T13:16:36;101378.91;;;8.91;100.00
49055;BME280;35405;52.344;14.530;2023-02-16T13:19:03;101375.91;;;8.93;100.00
49055;BME280;35405;52.344;14.530;2023-02-16T13:26:48;101377.50;;;8.84;100.00
49055;BME280;35405;52.344;14.530;2023-02-16T13:29:41;101377.25;;;8.85;100.00
49055;BME280;35405;52.344;14.530;2023-02-16T13:40:14;101377.78;;;8.87;100.00
49055;BME280;35405;52.344;14.530;2023-02-16T13:45:18;101369.94;;;8.86;100.00
49055;BME280;35405;52.344;14.530;2023-02-16T13:47:44;101369.66;;;8.82;100.00
49055;BME280;35405;52.344;14.530;2023-02-16T13:52:44;101374.50;;;8.80;100.00
49055;BME280;35405;52.344;14.530;2023-02-16T14:03:00;101371.34;;;8.93;100.00
49055;BME280;35405;52.344;14.530;2023-02-16T14:05:27;101369.44;;;8.94;100.00
49055;BME280;35405;52.344;14.530;2023-02-16T14:10:54;101375.69;;;8.95;100.00
49055;BME280;35405;52.344;14.530;2023-02-16T14:15:51;101367.50;;;8.89;100.00
49055;BME280;35405;52.344;14.530;2023-02-16T14:18:24;101361.22;;;8.84;100.00
49055;BME280;35405;52.344;14.530;2023-02-16T14:21:04;101369.66;;;8.82;100.00
49055;BME280;35405;52.344;14.530;2023-02-16T14:23:30;101367.78;;;8.88;100.00
49055;BME280;35405;52.344;14.530;2023-02-16T14:26:08;101364.25;;;8.92;100.00
49055;BME280;35405;52.344;14.530;2023-02-16T14:31:21;101367.25;;;8.91;100.00
49055;BME280;35405;52.344;14.530;2023-02-16T14:33:59;101368.31;;;8.90;100.00
49055;BME280;35405;52.344;14.530;2023-02-16T14:36:26;101367.25;;;8.91;100.00
49055;BME280;35405;52.344;14.530;2023-02-16T14:38:55;101366.44;;;8.90;100.00
49055;BME280;35405;52.344;14.530;2023-02-16T14:43:51;101352.53;;;8.77;100.00
49055;BME280;35405;52.344;14.530;2023-02-16T14:46:36;101356.84;;;8.78;100.00
49055;BME280;35405;52.344;14.530;2023-02-16T14:56:57;101354.66;;;8.69;100.00
49055;BME280;35405;52.344;14.530;2023-02-16T14:59:31;101341.88;;;8.65;100.00
49055;BME280;35405;52.344;14.530;2023-02-16T15:01:59;101351.34;;;8.62;100.00
49055;BME280;35405;52.344;14.530;2023-02-16T15:04:28;101353.72;;;8.54;100.00
49055;BME280;35405;52.344;14.530;2023-02-16T15:06:54;101349.63;;;8.51;100.00
49055;BME280;35405;52.344;14.530;2023-02-16T15:09:21;101347.97;;;8.45;100.00
49055;BME280;35405;52.344;14.530;2023-02-16T15:11:49;101348.78;;;8.40;100.00
49055;BME280;35405;52.344;14.530;2023-02-16T15:14:36;101354.69;;;8.37;100.00
49055;BME280;35405;52.344;14.530;2023-02-16T15:17:05;101356.53;;;8.32;100.00
49055;BME280;35405;52.344;14.530;2023-02-16T15:19:31;101357.06;;;8.29;100.00
49055;BME280;35405;52.344;14.530;2023-02-16T15:22:06;101353.25;;;8.24;100.00
49055;BME280;35405;52.344;14.530;2023-02-16T15:24:31;101352.09;;;8.20;100.00
49055;BME280;35405;52.344;14.530;2023-02-16T15:26:58;101354.00;;;8.20;100.00
49055;BME280;35405;52.344;14.530;2023-02-16T15:29:26;101352.09;;;8.15;100.00
49055;BME280;35405;52.344;14.530;2023-02-16T15:31:52;101344.66;;;8.06;100.00
49055;BME280;35405;52.344;14.530;2023-02-16T15:34:26;101340.78;;;7.96;100.00
49055;BME280;35405;52.344;14.530;2023-02-16T15:36:52;101336.69;;;7.89;100.00
49055;BME280;35405;52.344;14.530;2023-02-16T15:39:25;101344.47;;;7.80;100.00
49055;BME280;35405;52.344;14.530;2023-02-16T15:41:50;101344.91;;;7.72;100.00
49055;BME280;35405;52.344;14.530;2023-02-16T15:46:52;101354.25;;;7.59;100.00
49055;BME280;35405;52.344;14.530;2023-02-16T15:49:29;101347.16;;;7.53;100.00
49055;BME280;35405;52.344;14.530;2023-02-16T15:51:56;101343.38;;;7.54;100.00
49055;BME280;35405;52.344;14.530;2023-02-16T15:56:49;101352.78;;;7.46;100.00
49055;BME280;35405;52.344;14.530;2023-02-16T15:59:20;101343.00;;;7.45;100.00
49055;BME280;35405;52.344;14.530;2023-02-16T16:01:46;101343.22;;;7.39;100.00
49055;BME280;35405;52.344;14.530;2023-02-16T16:04:22;101348.03;;;7.31;100.00
49055;BME280;35405;52.344;14.530;2023-02-16T16:06:48;101347.44;;;7.29;100.00
49055;BME280;35405;52.344;14.530;2023-02-16T16:12:13;101350.66;;;7.26;100.00
49055;BME280;35405;52.344;14.530;2023-02-16T16:14:41;101347.66;;;7.23;100.00
49055;BME280;35405;52.344;14.530;2023-02-16T16:17:07;101341.41;;;7.22;100.00
49055;BME280;35405;52.344;14.530;2023-02-16T16:19:36;101353.44;;;7.31;100.00
49055;BME280;35405;52.344;14.530;2023-02-16T16:22:03;101332.38;;;7.39;100.00
49055;BME280;35405;52.344;14.530;2023-02-16T16:24:35;101333.78;;;7.41;100.00
49055;BME280;35405;52.344;14.530;2023-02-16T16:27:09;101323.31;;;7.50;100.00
49055;BME280;35405;52.344;14.530;2023-02-16T16:29:42;101325.81;;;7.56;100.00
49055;BME280;35405;52.344;14.530;2023-02-16T16:32:15;101330.72;;;7.60;100.00
49055;BME280;35405;52.344;14.530;2023-02-16T16:34:41;101328.81;;;7.60;100.00
49055;BME280;35405;52.344;14.530;2023-02-16T16:37:17;101333.47;;;7.65;100.00
49055;BME280;35405;52.344;14.530;2023-02-16T16:39:45;101327.28;;;7.69;100.00
49055;BME280;35405;52.344;14.530;2023-02-16T16:42:21;101327.03;;;7.71;100.00
49055;BME280;35405;52.344;14.530;2023-02-16T16:44:57;101325.16;;;7.71;100.00
49055;BME280;35405;52.344;14.530;2023-02-16T16:47:38;101334.66;;;7.74;100.00
49055;BME280;35405;52.344;14.530;2023-02-16T16:54:54;101323.75;;;7.69;100.00
49055;BME280;35405;52.344;14.530;2023-02-16T16:57:19;101325.66;;;7.68;100.00
49055;BME280;35405;52.344;14.530;2023-02-16T16:59:45;101324.56;;;7.69;100.00
49055;BME280;35405;52.344;14.530;2023-02-16T17:02:10;101315.41;;;7.70;100.00
49055;BME280;35405;52.344;14.530;2023-02-16T17:04:35;101325.66;;;7.68;100.00
49055;BME280;35405;52.344;14.530;2023-02-16T17:07:00;101315.91;;;7.67;100.00
49055;BME280;35405;52.344;14.530;2023-02-16T17:09:25;101318.88;;;7.66;100.00
49055;BME280;35405;52.344;14.530;2023-02-16T17:11:50;101319.66;;;7.61;100.00
49055;BME280;35405;52.344;14.530;2023-02-16T17:14:16;101322.53;;;7.54;100.00
49055;BME280;35405;52.344;14.530;2023-02-16T17:16:46;101317.34;;;7.48;100.00
49055;BME280;35405;52.344;14.530;2023-02-16T17:19:15;101321.38;;;7.45;100.00
49055;BME280;35405;52.344;14.530;2023-02-16T17:21:41;101324.56;;;7.42;100.00
49055;BME280;35405;52.344;14.530;2023-02-16T17:24:06;101315.34;;;7.38;100.00
49055;BME280;35405;52.344;14.530;2023-02-16T17:26:32;101315.59;;;7.37;100.00
49055;BME280;35405;52.344;14.530;2023-02-16T17:28:58;101316.44;;;7.37;100.00
49055;BME280;35405;52.344;14.530;2023-02-16T17:31:23;101313.44;;;7.39;100.00
49055;BME280;35405;52.344;14.530;2023-02-16T17:33:48;101321.00;;;7.37;100.00
49055;BME280;35405;52.344;14.530;2023-02-16T17:36:14;101322.81;;;7.31;100.00
49055;BME280;35405;52.344;14.530;2023-02-16T17:38:39;101320.28;;;7.19;100.00
49055;BME280;35405;52.344;14.530;2023-02-16T17:41:05;101314.19;;;7.07;100.00
49055;BME280;35405;52.344;14.530;2023-02-16T17:43:30;101313.03;;;7.03;100.00
49055;BME280;35405;52.344;14.530;2023-02-16T17:45:55;101310.22;;;6.93;100.00
49055;BME280;35405;52.344;14.530;2023-02-16T17:48:27;101308.03;;;6.90;100.00
49055;BME280;35405;52.344;14.530;2023-02-16T17:50:57;101301.47;;;6.85;100.00
49055;BME280;35405;52.344;14.530;2023-02-16T17:53:23;101303.56;;;6.78;100.00
49055;BME280;35405;52.344;14.530;2023-02-16T17:55:49;101303.47;;;6.73;100.00
49055;BME280;35405;52.344;14.530;2023-02-16T17:58:15;101297.75;;;6.70;100.00
49055;BME280;35405;52.344;14.530;2023-02-16T18:00:41;101308.56;;;6.70;100.00
49055;BME280;35405;52.344;14.530;2023-02-16T18:03:06;101308.34;;;6.71;100.00
49055;BME280;35405;52.344;14.530;2023-02-16T18:05:32;101304.06;;;6.75;100.00
49055;BME280;35405;52.344;14.530;2023-02-16T18:07:57;101306.31;;;6.83;100.00
49055;BME280;35405;52.344;14.530;2023-02-16T18:10:41;101300.72;;;6.90;100.00
49055;BME280;35405;52.344;14.530;2023-02-16T18:13:07;101302.34;;;6.91;100.00
49055;BME280;35405;52.344;14.530;2023-02-16T18:15:35;101291.84;;;6.95;100.00
49055;BME280;35405;52.344;14.530;2023-02-16T18:18:00;101304.34;;;7.01;100.00
49055;BME280;35405;52.344;14.530;2023-02-16T18:20:25;101291.16;;;7.04;100.00
49055;BME280;35405;52.344;14.530;2023-02-16T18:22:51;101294.13;;;7.03;100.00
49055;BME280;35405;52.344;14.530;2023-02-16T18:25:16;101292.50;;;7.02;100.00
49055;BME280;35405;52.344;14.530;2023-02-16T18:27:41;101293.53;;;7.01;100.00
49055;BME280;35405;52.344;14.530;2023-02-16T18:30:07;101288.47;;;7.04;100.00
49055;BME280;35405;52.344;14.530;2023-02-16T18:32:33;101287.69;;;7.09;100.00
49055;BME280;35405;52.344;14.530;2023-02-16T18:34:59;101295.81;;;7.09;100.00
49055;BME280;35405;52.344;14.530;2023-02-16T18:37:24;101286.88;;;7.08;100.00
49055;BME280;35405;52.344;14.530;2023-02-16T18:39:49;101286.06;;;7.08;100.00
49055;BME280;35405;52.344;14.530;2023-02-16T18:42:15;101289.34;;;7.10;100.00
49055;BME280;35405;52.344;14.530;2023-02-16T18:44:40;101290.97;;;7.11;100.00
49055;BME280;35405;52.344;14.530;2023-02-16T18:47:06;101286.69;;;7.15;100.00
49055;BME280;35405;52.344;14.530;2023-02-16T18:49:31;101289.38;;;7.15;100.00
49055;BME280;35405;52.344;14.530;2023-02-16T18:51:56;101294.25;;;7.13;100.00
49055;BME280;35405;52.344;14.530;2023-02-16T18:54:22;101303.91;;;7.09;100.00
49055;BME280;35405;52.344;14.530;2023-02-16T18:56:47;101303.69;;;7.10;100.00
49055;BME280;35405;52.344;14.530;2023-02-16T18:59:12;101304.00;;;7.14;100.00
49055;BME280;35405;52.344;14.530;2023-02-16T19:01:37;101310.47;;;7.13;100.00
49055;BME280;35405;52.344;14.530;2023-02-16T19:04:03;101312.84;;;7.09;100.00
49055;BME280;35405;52.344;14.530;2023-02-16T19:06:29;101314.19;;;7.07;100.00
49055;BME280;35405;52.344;14.530;2023-02-16T19:08:54;101319.03;;;7.05;100.00
49055;BME280;35405;52.344;14.530;2023-02-16T19:11:20;101309.75;;;7.01;100.00
49055;BME280;35405;52.344;14.530;2023-02-16T19:13:46;101312.97;;;6.98;100.00
49055;BME280;35405;52.344;14.530;2023-02-16T19:16:11;101305.38;;;6.95;100.00
49055;BME280;35405;52.344;14.530;2023-02-16T19:18:37;101302.13;;;6.93;100.00
49055;BME280;35405;52.344;14.530;2023-02-16T19:21:08;101302.63;;;6.90;100.00
49055;BME280;35405;52.344;14.530;2023-02-16T19:23:34;101299.09;;;6.89;100.00
49055;BME280;35405;52.344;14.530;2023-02-16T19:26:04;101298.75;;;6.85;100.00
49055;BME280;35405;52.344;14.530;2023-02-16T19:28:29;101302.31;;;6.86;100.00
49055;BME280;35405;52.344;14.530;2023-02-16T19:30:58;101299.09;;;6.89;100.00
49055;BME280;35405;52.344;14.530;2023-02-16T19:33:23;101291.00;;;6.89;100.00
49055;BME280;35405;52.344;14.530;2023-02-16T19:35:49;101296.06;;;6.85;100.00
49055;BME280;35405;52.344;14.530;2023-02-16T19:38:14;101296.03;;;6.80;100.00
49055;BME280;35405;52.344;14.530;2023-02-16T19:40:39;101287.03;;;6.75;100.00
49055;BME280;35405;52.344;14.530;2023-02-16T19:43:04;101282.94;;;6.72;100.00
49055;BME280;35405;52.344;14.530;2023-02-16T19:45:30;101287.75;;;6.70;100.00
49055;BME280;35405;52.344;14.530;2023-02-16T19:47:55;101284.94;;;6.60;100.00
49055;BME280;35405;52.344;14.530;2023-02-16T19:50:20;101281.84;;;6.51;100.00
49055;BME280;35405;52.344;14.530;2023-02-16T19:52:45;101283.03;;;6.38;100.00
49055;BME280;35405;52.344;14.530;2023-02-16T19:55:10;101284.44;;;6.24;100.00
49055;BME280;35405;52.344;14.530;2023-02-16T19:57:36;101287.00;;;6.14;100.00
49055;BME280;35405;52.344;14.530;2023-02-16T20:00:01;101287.41;;;6.06;100.00
49055;BME280;35405;52.344;14.530;2023-02-16T20:02:27;101295.91;;;5.98;100.00
49055;BME280;35405;52.344;14.530;2023-02-16T20:04:53;101287.69;;;5.92;100.00
49055;BME280;35405;52.344;14.530;2023-02-16T20:07:18;101293.34;;;5.91;100.00
49055;BME280;35405;52.344;14.530;2023-02-16T20:09:44;101290.31;;;5.87;100.00
49055;BME280;35405;52.344;14.530;2023-02-16T20:12:09;101288.44;;;5.88;100.00
49055;BME280;35405;52.344;14.530;2023-02-16T20:14:34;101292.53;;;5.90;100.00
49055;BME280;35405;52.344;14.530;2023-02-16T20:16:59;101287.47;;;5.94;100.00
49055;BME280;35405;52.344;14.530;2023-02-16T20:19:24;101282.91;;;5.94;100.00
49055;BME280;35405;52.344;14.530;2023-02-16T20:21:50;101282.28;;;5.92;100.00
49055;BME280;35405;52.344;14.530;2023-02-16T20:24:15;101279.03;;;5.90;100.00
49055;BME280;35405;52.344;14.530;2023-02-16T20:26:42;101281.16;;;5.88;100.00
49055;BME280;35405;52.344;14.530;2023-02-16T20:29:09;101277.53;;;5.83;100.00
49055;BME280;35405;52.344;14.530;2023-02-16T20:31:40;101285.47;;;5.89;100.00
49055;BME280;35405;52.344;14.530;2023-02-16T20:34:06;101287.81;;;5.98;100.00
49055;BME280;35405;52.344;14.530;2023-02-16T20:36:31;101279.78;;;6.03;100.00
49055;BME280;35405;52.344;14.530;2023-02-16T20:38:57;101273.59;;;6.02;100.00
49055;BME280;35405;52.344;14.530;2023-02-16T20:41:22;101276.00;;;6.04;100.00
49055;BME280;35405;52.344;14.530;2023-02-16T20:43:49;101278.22;;;6.07;100.00
49055;BME280;35405;52.344;14.530;2023-02-16T20:46:14;101283.72;;;6.12;100.00
49055;BME280;35405;52.344;14.530;2023-02-16T20:48:40;101290.25;;;6.16;100.00
49055;BME280;35405;52.344;14.530;2023-02-16T20:51:05;101286.00;;;6.20;100.00
49055;BME280;35405;52.344;14.530;2023-02-16T20:53:31;101275.19;;;6.20;100.00
49055;BME280;35405;52.344;14.530;2023-02-16T20:58:25;101268.72;;;6.21;100.00
49055;BME280;35405;52.344;14.530;2023-02-16T21:00:51;101276.34;;;6.24;100.00
